Latest Weather Observations for Samuel Hill

IDQ60801

Issued at 8:02 pm EST Sunday 26 February 2017 (issued every 30 minutes, with the page automatically refreshed every 10 minutes)

About weather observations | Map of weather stations | Latest weather observations for QLD | Other Formats
Station Details ID: 033308 Name: SAMUEL HILL AERO Lat: -22.74 Lon: 150.66 Height: 31.0 m
Data from the previous 72 hours. | See also: Recent months at Samuel Hill
Date/Time
EST
Temp
°C
App
Temp
°C
Dew
Point
°C
Rel
Hum
%
Delta-T
°C
Wind Press
QNH
hPa
Press
MSL
hPa
Rain since
9am
mm
Dir  Spd
km/h
Gust
km/h
Spd
kts
Gust
kts
26/07:30pm 25.7 27.9 20.3 72 3.5 ESE 9 15 5 8 1012.8 1012.6 -
26/07:00pm 25.7 27.2 19.8 70 3.8 ESE 11 17 6 9 1012.2 1012.0 -
26/06:30pm 26.0 27.8 19.6 68 4.1 ESE 9 13 5 7 1012.0 1011.8 -
26/06:00pm 26.6 27.6 19.5 65 4.6 E 13 24 7 13 1011.7 1011.5 -
26/05:30pm 27.3 28.1 19.9 64 4.8 E 15 24 8 13 1011.2 1011.0 -
26/05:00pm 28.1 27.8 19.1 58 5.8 ENE 19 24 10 13 1011.0 1010.8 -
26/04:30pm 28.6 28.0 18.4 54 6.5 ESE 19 30 10 16 1011.1 1010.9 -
26/04:00pm 28.7 27.8 18.2 53 6.7 ESE 20 32 11 17 1011.3 1011.1 -
26/03:30pm 29.2 28.4 18.0 51 7.1 ESE 19 35 10 19 1011.3 1011.1 -
26/03:00pm 29.4 28.0 17.9 50 7.3 ESE 22 33 12 18 1011.3 1011.1 -
26/02:30pm 29.7 28.4 19.1 53 6.9 ESE 24 33 13 18 1011.3 1011.1 -
26/02:00pm 29.1 28.1 19.7 57 6.1 SE 24 39 13 21 1011.6 1011.4 -
26/01:30pm 30.2 30.9 21.6 60 5.8 ESE 20 33 11 18 1011.6 1011.4 -
26/01:00pm 30.0 30.2 20.5 56 6.3 SE 20 33 11 18 1012.0 1011.8 -
26/12:30pm 29.9 29.5 20.2 56 6.4 SE 22 33 12 18 1012.3 1012.1 -
26/12:00pm 29.3 29.3 20.2 58 6.0 E 20 30 11 16 1012.5 1012.3 -
26/11:30am 29.7 29.6 20.0 56 6.4 ESE 20 30 11 16 1012.9 1012.7 -
26/11:00am 29.0 29.7 21.2 62 5.2 SSE 19 28 10 15 1013.0 1012.8 -
26/10:30am 29.0 28.7 19.6 57 6.1 SE 20 28 11 15 1013.2 1013.0 -
26/10:00am 28.9 29.2 20.4 60 5.6 ESE 19 33 10 18 1013.4 1013.2 0.0
26/09:30am 28.5 27.4 18.6 55 6.4 ESE 22 32 12 17 1013.5 1013.3 0.0
26/09:00am 28.4 27.1 18.2 54 6.5 ESE 22 32 12 17 1013.6 1013.4 0.2
26/08:30am 27.5 27.4 19.6 62 5.1 ESE 19 28 10 15 1013.4 1013.2 0.2
26/08:00am 27.5 27.4 19.6 62 5.1 ESE 19 30 10 16 1013.3 1013.1 0.2
26/07:30am 25.5 27.0 18.9 67 4.2 SE 9 20 5 11 1013.1 1012.9 0.2
26/07:00am 25.8 27.5 19.4 67 4.1 ESE 9 15 5 8 1012.8 1012.6 0.2
26/06:30am 23.1 24.7 18.2 74 3.1 ESE 7 9 4 5 1012.5 1012.3 0.2
26/06:00am 22.6 23.9 17.5 73 3.2 SE 7 9 4 5 1012.2 1012.0 0.2
26/05:30am 23.0 23.9 17.5 71 3.4 SE 9 15 5 8 1011.9 1011.7 0.2
26/05:00am 23.2 23.8 17.7 71 3.4 SE 11 15 6 8 1011.6 1011.4 0.2
26/04:30am 23.2 24.2 17.7 71 3.4 SE 9 13 5 7 1011.5 1011.3 0.2
26/04:00am 23.3 24.2 17.5 70 3.6 SE 9 13 5 7 1011.3 1011.1 0.2
26/03:30am 23.7 24.7 17.7 69 3.7 SE 9 11 5 6 1011.3 1011.1 0.2
26/03:00am 24.1 25.2 18.1 69 3.8 SE 9 13 5 7 1011.3 1011.1 0.2
26/02:30am 24.5 25.2 18.0 67 4.1 SE 11 17 6 9 1011.3 1011.1 0.2
26/02:00am 25.0 25.5 18.4 66 4.2 ESE 13 20 7 11 1011.2 1011.0 0.2
26/01:30am 25.4 25.2 18.6 66 4.3 ESE 17 24 9 13 1011.5 1011.3 0.2
26/01:00am 25.3 25.9 18.5 66 4.3 ESE 13 22 7 12 1011.9 1011.7 0.2
26/12:30am 25.6 26.1 19.3 68 4.1 ESE 15 22 8 12 1012.3 1012.1 0.2
26/12:00am 25.4 25.6 19.3 69 3.9 ESE 17 22 9 12 1012.6 1012.4 0.2
 
Date/Time
EST
Temp
°C
App
Temp
°C
Dew
Point
°C
Rel
Hum
%
Delta-T
°C
Wind Press
QNH
hPa
Press
MSL
hPa
Rain since
9am
mm
Dir  Spd
km/h
Gust
km/h
Spd
kts
Gust
kts
25/11:30pm 25.5 25.7 19.4 69 3.9 ESE 17 24 9 13 1013.0 1012.8 0.2
25/11:00pm 25.6 26.7 19.7 70 3.8 ESE 13 20 7 11 1013.1 1012.9 0.2
25/10:30pm 25.6 27.3 20.2 72 3.5 ESE 11 19 6 10 1013.2 1013.0 0.2
25/10:00pm 25.4 27.2 20.4 74 3.3 ESE 11 17 6 9 1013.0 1012.8 0.2
25/09:30pm 25.3 27.5 20.5 75 3.1 ESE 9 15 5 8 1012.9 1012.7 0.2
25/09:00pm 25.3 27.3 20.8 76 3.0 E 11 19 6 10 1012.7 1012.5 0.2
25/08:30pm 25.4 27.6 21.1 77 2.8 E 11 17 6 9 1012.6 1012.4 0.2
25/08:00pm 25.3 27.9 21.2 78 2.7 ESE 9 17 5 9 1012.4 1012.2 0.2
25/07:30pm 24.9 27.7 20.8 78 2.7 ESE 7 11 4 6 1012.4 1012.2 0.2
25/07:00pm 25.5 27.8 20.7 75 3.2 ESE 9 13 5 7 1012.1 1011.9 0.2
25/06:30pm 26.1 27.8 20.9 73 3.4 ESE 13 22 7 12 1012.0 1011.8 0.2
25/06:00pm 26.7 27.6 20.8 70 3.9 E 17 28 9 15 1011.6 1011.4 0.2
25/05:30pm 27.4 27.8 20.7 67 4.4 E 19 28 10 15 1011.4 1011.2 0.2
25/05:00pm 28.3 29.2 20.8 63 5.0 E 17 26 9 14 1011.4 1011.2 0.2
25/04:30pm 28.7 29.3 20.2 60 5.6 ESE 17 26 9 14 1011.2 1011.0 0.2
25/04:00pm 28.4 28.7 20.7 63 5.1 ESE 20 32 11 17 1011.2 1011.0 0.2
25/03:30pm 28.6 28.4 20.6 62 5.3 SE 22 35 12 19 1011.3 1011.1 0.2
25/03:00pm 28.0 27.7 20.3 63 5.1 SE 22 37 12 20 1011.4 1011.2 0.2
25/02:30pm 28.2 28.1 20.0 61 5.4 SE 20 32 11 17 1011.6 1011.4 0.2
25/02:00pm 29.3 29.6 21.5 63 5.2 SE 22 35 12 19 1012.0 1011.8 0.2
25/01:30pm 29.5 29.7 20.6 58 5.9 SE 20 32 11 17 1012.4 1012.2 0.2
25/01:00pm 29.3 29.2 20.7 59 5.7 SE 22 35 12 19 1012.7 1012.5 0.2
25/12:30pm 29.9 30.1 21.3 60 5.8 SE 22 33 12 18 1012.9 1012.7 0.2
25/12:00pm 30.0 29.9 20.0 55 6.6 SE 20 35 11 19 1013.2 1013.0 0.2
25/11:30am 29.6 28.9 19.6 55 6.5 ESE 22 32 12 17 1013.7 1013.5 0.2
25/11:00am 29.4 28.8 19.7 56 6.3 SE 22 32 12 17 1013.9 1013.7 0.2
25/10:30am 29.2 29.2 20.1 58 6.0 SE 20 32 11 17 1014.2 1014.0 0.2
25/10:00am 27.8 27.4 19.3 60 5.5 SE 20 32 11 17 1014.2 1014.0 0.2
25/09:30am 28.4 28.3 19.9 60 5.6 SE 20 30 11 16 1014.2 1014.0 0.2
25/09:00am 27.9 28.9 21.0 66 4.6 SSE 17 30 9 16 1014.2 1014.0 0.4
25/08:30am 26.1 28.4 22.0 78 2.7 S 13 19 7 10 1014.2 1014.0 0.4
25/08:00am 25.2 27.4 21.1 78 2.7 S 11 17 6 9 1014.2 1014.0 0.4
25/07:30am 25.0 27.0 20.7 77 2.8 SSE 11 17 6 9 1014.0 1013.8 0.4
25/07:00am 24.6 27.3 20.7 79 2.6 S 7 11 4 6 1013.6 1013.4 0.4
25/06:30am 23.1 25.2 20.2 84 1.9 SSW 9 11 5 6 1013.2 1013.0 0.4
25/06:00am 22.2 24.7 20.3 89 1.2 S 7 9 4 5 1013.1 1012.9 0.4
25/05:30am 21.7 24.0 19.4 87 1.5 SSE 6 7 3 4 1012.9 1012.7 0.4
25/05:00am 22.7 25.3 20.4 87 1.5 S 7 11 4 6 1012.9 1012.7 0.4
25/04:30am 22.6 25.2 20.5 88 1.4 S 7 9 4 5 1012.9 1012.7 0.4
25/04:00am 22.9 25.6 20.6 87 1.5 SSE 7 9 4 5 1012.7 1012.5 0.4
25/03:30am 23.4 26.5 21.1 87 1.5 SSE 6 9 3 5 1012.9 1012.7 0.4
25/03:00am 23.6 26.1 21.1 86 1.6 SSE 9 13 5 7 1012.7 1012.5 0.4
25/02:30am 24.0 27.0 21.3 85 1.8 S 7 9 4 5 1012.7 1012.5 0.2
25/02:00am 23.8 26.7 21.1 85 1.8 ESE 7 7 4 4 1012.8 1012.6 0.2
25/01:30am 24.0 26.9 20.7 82 2.2 SE 6 9 3 5 1013.0 1012.8 0.2
25/01:00am 24.9 27.9 20.8 78 2.7 ESE 6 7 3 4 1013.4 1013.2 0.2
25/12:30am 25.6 28.1 21.1 76 3.0 ESE 9 15 5 8 1013.5 1013.3 0.2
25/12:00am 26.0 28.2 21.2 75 3.2 ESE 11 17 6 9 1013.7 1013.5 0.2
 
Date/Time
EST
Temp
°C
App
Temp
°C
Dew
Point
°C
Rel
Hum
%
Delta-T
°C
Wind Press
QNH
hPa
Press
MSL
hPa
Rain since
9am
mm
Dir  Spd
km/h
Gust
km/h
Spd
kts
Gust
kts
24/11:30pm 25.6 28.8 21.7 79 2.6 ESE 7 15 4 8 1014.0 1013.8 0.2
24/11:00pm 26.3 28.7 21.5 75 3.2 ESE 11 17 6 9 1014.3 1014.1 0.2
24/10:30pm 26.3 28.6 21.3 74 3.3 ESE 11 17 6 9 1014.3 1014.1 0.2
24/10:00pm 26.4 28.6 21.8 76 3.1 E 13 20 7 11 1014.5 1014.3 0.2
24/09:30pm 25.9 28.9 21.3 76 3.0 ESE 7 13 4 7 1014.5 1014.3 0.2
24/09:00pm 26.2 28.9 21.4 75 3.2 ESE 9 13 5 7 1014.4 1014.2 0.2
24/08:30pm 26.3 28.8 21.7 76 3.1 ESE 11 17 6 9 1014.3 1014.1 0.2
24/08:00pm 26.2 29.3 22.1 78 2.7 E 9 17 5 9 1014.1 1013.9 0.2
24/07:30pm 26.1 29.4 21.5 76 3.1 E 6 11 3 6 1013.9 1013.7 0.2
24/07:00pm 26.5 29.7 21.7 75 3.2 E 7 13 4 7 1013.7 1013.5 0.2
24/06:30pm 26.8 29.3 21.8 74 3.3 E 11 17 6 9 1013.5 1013.3 0.2
24/06:00pm 27.4 30.0 21.9 72 3.7 ESE 11 15 6 8 1013.3 1013.1 0.2
24/05:30pm 28.3 29.6 21.6 67 4.5 E 17 26 9 14 1013.1 1012.9 0.2
24/05:00pm 28.1 30.0 22.1 70 4.0 E 15 26 8 14 1013.0 1012.8 0.2
24/04:30pm 28.6 29.4 21.4 65 4.8 ESE 19 24 10 13 1013.0 1012.8 0.2
24/04:00pm 28.3 29.1 21.8 68 4.4 ESE 20 30 11 16 1013.0 1012.8 0.2
24/03:30pm 27.2 28.6 21.9 73 3.6 ESE 17 24 9 13 1013.3 1013.1 0.2
24/03:00pm 30.4 31.5 22.3 62 5.5 SE 20 32 11 17 1013.1 1012.9 0.2
24/02:30pm 29.6 30.3 21.5 61 5.4 SE 20 28 11 15 1013.5 1013.3 0.2
24/02:00pm 29.2 30.1 21.9 64 4.9 ESE 20 30 11 16 1013.6 1013.4 0.2
24/01:30pm 29.2 29.8 21.4 63 5.2 ESE 20 30 11 16 1013.9 1013.7 0.2
24/01:00pm 29.4 31.9 23.1 69 4.3 SE 15 24 8 13 1014.1 1013.9 0.2
24/12:30pm 27.4 30.1 23.4 79 2.7 SSE 15 24 8 13 1014.6 1014.4 0.2
24/12:05pm 26.3 28.2 22.8 81 2.4 SE 17 28 9 15 1015.0 1014.8 0.2
24/12:00pm 26.1 28.7 22.6 81 2.4 SE 13 20 7 11 1015.0 1014.8 0.2
24/11:47am 25.4 25.9 21.9 81 2.3 SE 22 37 12 20 1015.3 1015.1 0.2
24/11:30am 28.1 29.3 22.1 70 4.0 SE 19 28 10 15 1015.2 1015.0 0.0
24/11:00am 27.3 28.7 21.8 72 3.7 SSE 17 26 9 14 1015.5 1015.3 0.0
24/10:30am 27.1 28.1 21.8 73 3.5 SSE 19 28 10 15 1015.7 1015.5 0.0
24/10:00am 27.5 29.5 22.9 76 3.1 SSE 17 28 9 15 1015.8 1015.6 0.0
24/09:30am 25.4 26.5 21.3 78 2.7 SE 17 26 9 14 1015.9 1015.7 0.0
24/09:00am 26.6 27.2 21.1 72 3.6 SSE 19 30 10 16 1015.9 1015.7 0.0
24/08:30am 26.3 27.4 21.3 74 3.3 SSE 17 26 9 14 1015.8 1015.6 0.0
24/08:00am 25.5 26.9 21.0 76 3.0 SSE 15 22 8 12 1015.5 1015.3 0.0
24/07:30am 24.6 26.4 21.1 81 2.3 SSE 13 19 7 10 1015.6 1015.4 0.0
24/07:00am 24.2 25.8 20.7 81 2.3 SSE 13 19 7 10 1015.3 1015.1 0.0
24/06:30am 24.2 26.4 21.1 83 2.0 SSE 11 19 6 10 1015.1 1014.9 0.0
24/06:00am 24.5 26.2 21.0 81 2.3 SSE 13 20 7 11 1014.7 1014.5 0.0
24/05:30am 25.0 26.7 20.9 78 2.7 SE 13 22 7 12 1014.5 1014.3 0.0
24/05:00am 25.2 27.4 21.1 78 2.7 SE 11 20 6 11 1014.4 1014.2 0.0
24/04:30am 25.3 26.9 20.8 76 3.0 SE 13 20 7 11 1014.4 1014.2 0.0
24/04:00am 25.2 26.9 20.9 77 2.8 SE 13 19 7 10 1014.3 1014.1 0.0
24/03:30am 25.2 27.0 21.1 78 2.7 SE 13 20 7 11 1014.1 1013.9 0.0
24/03:00am 25.3 27.4 21.0 77 2.8 SE 11 15 6 8 1014.2 1014.0 0.0
24/02:30am 25.5 27.1 20.7 75 3.2 SE 13 19 7 10 1014.4 1014.2 0.0
24/02:00am 25.5 27.1 20.7 75 3.1 SE 13 19 7 10 1014.7 1014.5 0.0
24/01:30am 25.6 26.5 20.8 75 3.2 ESE 17 28 9 15 1015.0 1014.8 0.0
24/01:00am 25.5 27.6 21.0 76 3.0 ESE 11 17 6 9 1015.3 1015.1 0.0
24/12:30am 25.6 27.0 21.1 76 3.0 ESE 15 28 8 15 1015.7 1015.5 0.0
24/12:00am 25.8 27.3 21.2 76 3.0 ESE 15 24 8 13 1015.9 1015.7 0.0
 
Date/Time
EST
Temp
°C
App
Temp
°C
Dew
Point
°C
Rel
Hum
%
Delta-T
°C
Wind Press
QNH
hPa
Press
MSL
hPa
Rain since
9am
mm
Dir  Spd
km/h
Gust
km/h
Spd
kts
Gust
kts
23/11:30pm 25.6 27.6 21.5 78 2.7 ESE 13 19 7 10 1015.9 1015.7 0.0
23/11:00pm 25.5 28.0 21.8 80 2.5 SE 11 17 6 9 1016.0 1015.8 0.0
23/10:30pm 24.5 27.7 21.6 84 1.9 SSE 7 9 4 5 1016.1 1015.9 0.0
23/10:00pm 24.2 27.6 21.7 86 1.7 SSE 6 11 3 6 1016.0 1015.8 0.0
23/09:30pm 23.5 26.5 20.8 85 1.8 SSE 6 7 3 4 1016.0 1015.8 0.0
23/09:00pm 23.7 26.8 21.0 85 1.8 S 6 9 3 5 1015.9 1015.7 0.0
23/08:30pm 23.8 26.8 20.9 84 1.9 SSE 6 7 3 4 1015.6 1015.4 0.0

Other Formats:

Comma delimited format used in spreadsheet applications
http://www.bom.gov.au/fwo/IDQ60801/IDQ60801.94370.axf

JavaScript Object Notation format (JSON) in row-major order
http://www.bom.gov.au/fwo/IDQ60801/IDQ60801.94370.json